createdAt,value
2018-01-05T00:02:04.529Z,61.90
2018-01-05T00:04:32.873Z,61.90
2018-01-05T00:07:01.169Z,61.70
2018-01-05T00:09:29.468Z,62.20
2018-01-05T00:11:57.784Z,62.00
2018-01-05T00:14:26.077Z,62.30
2018-01-05T00:16:54.383Z,60.40
2018-01-05T00:19:22.700Z,62.30
2018-01-05T00:21:51.004Z,62.50
2018-01-05T00:24:19.301Z,60.90
2018-01-05T00:26:47.612Z,60.40
2018-01-05T00:29:15.905Z,60.40
2018-01-05T00:31:44.221Z,60.10
2018-01-05T00:34:13.292Z,59.60
2018-01-05T00:36:41.622Z,59.40
2018-01-05T00:39:09.922Z,59.50
2018-01-05T00:41:38.230Z,59.50
2018-01-05T00:44:06.553Z,60.30
2018-01-05T00:46:35.634Z,58.70
2018-01-05T00:49:04.688Z,59.10
2018-01-05T00:51:33.030Z,59.10
2018-01-05T00:54:01.332Z,58.40
2018-01-05T00:56:29.700Z,58.00
2018-01-05T00:58:58.029Z,58.30
2018-01-05T01:01:26.316Z,57.90
2018-01-05T01:03:54.648Z,58.80
2018-01-05T01:06:22.957Z,58.90
2018-01-05T01:08:51.235Z,59.10
2018-01-05T01:11:19.553Z,59.40
2018-01-05T01:13:47.884Z,58.90
2018-01-05T01:16:16.417Z,59.00
2018-01-05T01:18:44.707Z,58.60
2018-01-05T01:21:13.020Z,58.50
2018-01-05T01:23:41.307Z,58.30
2018-01-05T01:26:09.704Z,58.50
2018-01-05T01:28:38.024Z,58.90
2018-01-05T01:31:06.309Z,60.20
2018-01-05T01:33:34.673Z,59.40
2018-01-05T01:36:02.960Z,59.30
2018-01-05T01:38:31.278Z,59.40
2018-01-05T01:40:59.605Z,60.00
2018-01-05T01:43:28.684Z,60.00
2018-01-05T01:45:56.977Z,59.90
2018-01-05T01:48:25.539Z,59.70
2018-01-05T01:50:53.838Z,59.70
2018-01-05T01:53:22.385Z,59.40
2018-01-05T01:55:52.138Z,59.50
2018-01-05T01:58:20.625Z,59.50
2018-01-05T02:00:48.923Z,60.00
2018-01-05T02:03:18.021Z,60.10
2018-01-05T02:05:46.341Z,60.00
2018-01-05T02:08:15.421Z,60.40
2018-01-05T02:10:43.769Z,60.40
2018-01-05T02:13:12.059Z,61.10
2018-01-05T02:15:40.368Z,61.00
2018-01-05T02:18:08.682Z,61.40
2018-01-05T02:20:37.747Z,61.50
2018-01-05T02:23:06.058Z,61.50
2018-01-05T02:25:34.368Z,62.50
2018-01-05T02:28:02.664Z,62.50
2018-01-05T02:30:31.064Z,62.80
2018-01-05T02:32:59.364Z,63.30
2018-01-05T02:35:28.431Z,63.70
2018-01-05T02:37:56.746Z,63.70
2018-01-05T02:40:25.055Z,64.00
2018-01-05T02:42:54.133Z,64.60
2018-01-05T02:45:22.452Z,64.50
2018-01-05T02:47:50.780Z,64.20
2018-01-05T02:50:19.079Z,64.30
2018-01-05T02:52:47.505Z,64.20
2018-01-05T02:55:15.830Z,63.60
2018-01-05T02:57:44.873Z,63.40
2018-01-05T03:00:13.205Z,63.30
2018-01-05T03:02:41.508Z,63.50
2018-01-05T03:05:10.617Z,64.60
2018-01-05T03:07:38.901Z,64.60
2018-01-05T03:10:07.192Z,63.80
2018-01-05T03:12:35.537Z,64.50
2018-01-05T03:15:04.652Z,65.00
2018-01-05T03:17:32.969Z,65.00
2018-01-05T03:20:01.311Z,64.90
2018-01-05T03:22:29.641Z,64.50
2018-01-05T03:24:57.983Z,64.70
2018-01-05T03:27:26.309Z,64.70
2018-01-05T03:29:54.648Z,65.00
2018-01-05T03:32:23.002Z,65.20
2018-01-05T03:34:52.790Z,65.60
2018-01-05T03:37:21.770Z,65.90
2018-01-05T03:39:51.791Z,65.60
2018-01-05T03:42:21.059Z,65.60
2018-01-05T03:44:50.453Z,65.70
2018-01-05T03:47:18.752Z,66.40
2018-01-05T03:49:47.883Z,66.50
2018-01-05T03:52:16.199Z,66.60
2018-01-05T03:54:44.544Z,66.70
2018-01-05T03:57:12.920Z,67.10
2018-01-05T03:59:41.237Z,66.90
2018-01-05T04:02:09.536Z,67.50
2018-01-05T04:04:37.849Z,67.40
2018-01-05T04:07:06.161Z,68.50
2018-01-05T04:09:35.222Z,68.40
2018-01-05T04:12:05.023Z,69.20
2018-01-05T04:14:34.931Z,69.10
2018-01-05T04:17:04.039Z,69.50
2018-01-05T04:19:32.349Z,69.60
2018-01-05T04:22:01.436Z,69.80
2018-01-05T04:24:29.755Z,69.80
2018-01-05T04:26:58.096Z,70.30
2018-01-05T04:29:26.409Z,71.00
2018-01-05T04:31:54.710Z,70.20
2018-01-05T04:34:23.051Z,70.90
2018-01-05T04:36:51.352Z,71.00
2018-01-05T04:39:19.726Z,71.00
2018-01-05T04:41:48.786Z,72.20
2018-01-05T04:44:17.850Z,73.50
2018-01-05T04:46:46.949Z,73.90
2018-01-05T04:49:15.268Z,73.80
2018-01-05T04:51:43.593Z,74.40
2018-01-05T04:54:11.901Z,74.90
2018-01-05T04:56:40.974Z,75.40
2018-01-05T04:59:10.048Z,75.60
2018-01-05T05:01:39.128Z,75.90
2018-01-05T05:04:07.440Z,75.90
2018-01-05T05:06:35.810Z,76.60
2018-01-05T05:09:04.858Z,76.70
2018-01-05T05:11:33.160Z,76.90
2018-01-05T05:14:01.710Z,77.80
2018-01-05T05:16:30.064Z,78.10
2018-01-05T05:18:58.397Z,79.10
2018-01-05T05:21:26.726Z,80.00
2018-01-05T05:23:55.814Z,81.80
2018-01-05T05:26:24.868Z,83.40
2018-01-05T05:28:53.173Z,83.40
2018-01-05T05:31:21.487Z,82.80
2018-01-05T05:33:50.547Z,84.10
2018-01-05T05:36:18.908Z,84.10
2018-01-05T05:38:47.242Z,84.10
2018-01-05T05:41:15.563Z,83.90
2018-01-05T05:43:43.969Z,83.20
2018-01-05T05:46:12.257Z,82.30
2018-01-05T05:48:40.564Z,82.00
2018-01-05T05:51:08.873Z,82.50
2018-01-05T05:53:37.236Z,81.10
2018-01-05T05:56:05.492Z,81.30
2018-01-05T05:58:33.832Z,81.20
2018-01-05T06:01:02.893Z,81.90
2018-01-05T06:03:31.357Z,81.30
2018-01-05T06:05:59.829Z,83.00
2018-01-05T06:08:28.140Z,84.30
2018-01-05T06:10:56.420Z,85.00
2018-01-05T06:13:25.489Z,85.30
2018-01-05T06:15:53.784Z,86.90
2018-01-05T06:18:22.823Z,89.60
2018-01-05T06:20:51.201Z,89.60
2018-01-05T06:23:20.410Z,91.60
2018-01-05T06:25:49.486Z,92.80
2018-01-05T06:28:17.789Z,92.90
2018-01-05T06:30:46.104Z,95.20
2018-01-05T06:33:14.417Z,97.40
2018-01-05T06:35:42.829Z,99.50
2018-01-05T06:38:11.144Z,99.90
2018-01-05T06:40:39.437Z,99.90
2018-01-05T06:43:07.764Z,99.90
2018-01-05T06:45:36.065Z,99.90
2018-01-05T06:48:04.381Z,99.90
2018-01-05T06:50:32.692Z,99.90
2018-01-05T06:53:00.997Z,99.90
2018-01-05T06:55:29.305Z,99.90
2018-01-05T06:57:58.388Z,99.90
2018-01-05T07:00:26.676Z,99.90
2018-01-05T07:02:55.731Z,99.90
2018-01-05T07:05:24.025Z,99.90
2018-01-05T07:07:53.587Z,99.90
2018-01-05T07:10:21.899Z,99.90
2018-01-05T07:12:50.229Z,98.20
2018-01-05T07:15:18.513Z,95.60
2018-01-05T07:17:46.841Z,95.40
2018-01-05T07:20:15.155Z,95.10
2018-01-05T07:22:43.453Z,94.70
2018-01-05T07:25:11.761Z,93.60
2018-01-05T07:27:40.080Z,92.90
2018-01-05T07:30:09.000Z,92.00
2018-01-05T07:32:38.317Z,91.00
2018-01-05T07:35:07.686Z,90.40
2018-01-05T07:37:36.702Z,90.40
2018-01-05T07:40:12.480Z,90.00
2018-01-05T07:42:40.813Z,90.10
2018-01-05T07:45:09.184Z,89.80
2018-01-05T07:47:37.464Z,88.70
2018-01-05T07:50:05.848Z,89.10
2018-01-05T07:52:34.381Z,89.50
2018-01-05T07:55:02.664Z,89.50
2018-01-05T07:57:30.986Z,89.00
2018-01-05T08:00:00.288Z,88.60
2018-01-05T08:02:29.357Z,88.80
2018-01-05T08:04:58.441Z,88.30
2018-01-05T08:07:27.500Z,87.60
2018-01-05T08:09:55.846Z,87.60
2018-01-05T08:12:24.153Z,87.60
2018-01-05T08:14:52.472Z,87.50
2018-01-05T08:17:20.772Z,87.90
2018-01-05T08:19:49.102Z,87.80
2018-01-05T08:22:17.433Z,87.90
2018-01-05T08:24:46.497Z,87.60
2018-01-05T08:27:14.810Z,87.50
2018-01-05T08:29:43.098Z,87.30
2018-01-05T08:32:11.372Z,87.10
2018-01-05T08:34:39.677Z,86.80
2018-01-05T08:37:07.956Z,86.90
2018-01-05T08:39:36.245Z,87.10
2018-01-05T08:42:05.354Z,85.70
2018-01-05T08:44:34.392Z,86.00
2018-01-05T08:47:02.686Z,86.90
2018-01-05T08:49:30.982Z,87.10
2018-01-05T08:51:59.288Z,86.90
2018-01-05T08:54:27.585Z,87.40
2018-01-05T08:56:55.899Z,87.70
2018-01-05T08:59:25.182Z,87.90
2018-01-05T09:01:53.460Z,88.40
2018-01-05T09:04:22.533Z,87.60
2018-01-05T09:06:51.589Z,87.40
2018-01-05T09:09:19.926Z,87.40
2018-01-05T09:11:48.212Z,87.20
2018-01-05T09:14:16.522Z,88.10
2018-01-05T09:16:44.838Z,87.60
2018-01-05T09:19:13.881Z,87.40
2018-01-05T09:21:42.169Z,87.40
2018-01-05T09:24:10.484Z,87.40
2018-01-05T09:26:38.786Z,87.70
2018-01-05T09:29:07.133Z,87.50
2018-01-05T09:31:35.417Z,87.80
2018-01-05T09:34:04.560Z,87.40
2018-01-05T09:36:32.867Z,87.00
2018-01-05T09:39:02.840Z,87.10
2018-01-05T09:41:32.887Z,87.40
2018-01-05T09:44:02.513Z,87.00
2018-01-05T09:46:30.866Z,87.00
2018-01-05T09:48:59.191Z,87.10
2018-01-05T09:51:27.598Z,87.30
2018-01-05T09:53:55.902Z,88.20
2018-01-05T09:56:24.213Z,88.20
2018-01-05T09:58:52.561Z,89.00
2018-01-05T10:01:21.031Z,90.30
2018-01-05T10:03:50.938Z,92.30
2018-01-05T10:06:20.339Z,94.90
2018-01-05T10:08:48.640Z,98.60
2018-01-05T10:11:16.978Z,99.90
2018-01-05T10:13:46.054Z,99.90
2018-01-05T10:16:15.130Z,99.90
2018-01-05T10:18:44.270Z,99.90
2018-01-05T10:21:12.764Z,99.90
2018-01-05T10:23:41.845Z,99.90
2018-01-05T10:26:10.208Z,99.90
2018-01-05T10:28:39.301Z,99.90
2018-01-05T10:31:07.616Z,99.90
2018-01-05T10:33:35.932Z,99.90
2018-01-05T10:36:04.241Z,99.90
2018-01-05T10:38:32.583Z,99.90
2018-01-05T10:41:01.026Z,99.90
2018-01-05T10:43:29.312Z,99.90
2018-01-05T10:45:57.623Z,99.90
2018-01-05T10:48:25.946Z,99.90
2018-01-05T10:50:54.233Z,99.90
2018-01-05T10:53:22.576Z,99.90
2018-01-05T10:55:52.324Z,99.90
2018-01-05T10:58:20.644Z,99.90
2018-01-05T11:00:48.971Z,99.90
2018-01-05T11:03:18.016Z,99.90
2018-01-05T11:05:46.319Z,99.90
2018-01-05T11:08:15.410Z,99.90
2018-01-05T11:10:43.763Z,99.90
2018-01-05T11:13:12.084Z,99.90
2018-01-05T11:15:40.444Z,99.90
2018-01-05T11:18:08.847Z,99.90
2018-01-05T11:20:37.136Z,99.90
2018-01-05T11:23:05.456Z,99.90
2018-01-05T11:25:33.766Z,99.90
2018-01-05T11:28:02.111Z,99.90
2018-01-05T11:30:30.392Z,99.90
2018-01-05T11:32:58.725Z,99.90
2018-01-05T11:35:27.038Z,99.90
2018-01-05T11:37:56.211Z,99.90
2018-01-05T11:40:24.522Z,99.90
2018-01-05T11:42:52.838Z,99.90
2018-01-05T11:45:22.301Z,99.90
2018-01-05T11:47:51.398Z,98.70
2018-01-05T11:50:20.749Z,98.70
2018-01-05T11:52:50.007Z,98.90
2018-01-05T11:55:18.328Z,98.90
2018-01-05T11:57:47.421Z,97.90
2018-01-05T12:00:15.732Z,97.90
2018-01-05T12:02:44.040Z,97.70
2018-01-05T12:05:13.443Z,96.10
2018-01-05T12:07:41.744Z,94.50
2018-01-05T12:10:10.821Z,95.20
2018-01-05T12:12:39.108Z,95.20
2018-01-05T12:15:08.780Z,96.50
2018-01-05T12:17:37.494Z,96.90
2018-01-05T12:20:05.810Z,97.60
2018-01-05T12:22:34.179Z,95.30
2018-01-05T12:25:02.481Z,95.70
2018-01-05T12:27:30.797Z,95.20
2018-01-05T12:29:59.097Z,96.50
2018-01-05T12:32:27.411Z,95.90
2018-01-05T12:34:56.493Z,93.40
2018-01-05T12:37:24.774Z,93.40
2018-01-05T12:39:53.060Z,92.90
2018-01-05T12:42:21.394Z,93.00
2018-01-05T12:44:49.686Z,91.80
2018-01-05T12:47:18.022Z,92.00
2018-01-05T12:49:46.321Z,92.80
2018-01-05T12:52:15.382Z,93.80
2018-01-05T12:54:43.701Z,93.70
2018-01-05T12:57:12.004Z,94.00
2018-01-05T12:59:41.179Z,94.60
2018-01-05T13:02:10.033Z,93.80
2018-01-05T13:04:39.011Z,93.20
2018-01-05T13:07:08.105Z,94.20
2018-01-05T13:09:37.156Z,93.20
2018-01-05T13:12:06.236Z,94.30
2018-01-05T13:14:34.541Z,94.40
2018-01-05T13:17:02.836Z,94.70
2018-01-05T13:19:31.250Z,93.20
2018-01-05T13:21:59.609Z,94.50
2018-01-05T13:24:27.907Z,95.00
2018-01-05T13:26:56.229Z,94.50
2018-01-05T13:29:24.521Z,94.20
2018-01-05T13:31:52.796Z,92.90
2018-01-05T13:34:21.150Z,92.80
2018-01-05T13:36:49.435Z,93.80
2018-01-05T13:39:17.784Z,95.10
2018-01-05T13:41:46.090Z,94.30
2018-01-05T13:44:14.374Z,94.50
2018-01-05T13:46:42.721Z,95.70
2018-01-05T13:49:11.054Z,93.80
2018-01-05T13:51:39.430Z,95.00
2018-01-05T13:54:07.805Z,94.60
2018-01-05T13:56:36.338Z,93.70
2018-01-05T13:59:05.027Z,94.20
2018-01-05T14:01:33.419Z,94.80
2018-01-05T14:04:01.818Z,96.50
2018-01-05T14:06:30.194Z,98.90
2018-01-05T14:08:58.562Z,99.90
2018-01-05T14:11:27.656Z,99.90
2018-01-05T14:13:56.805Z,99.90
2018-01-05T14:16:26.061Z,99.90
2018-01-05T14:18:55.844Z,99.90
2018-01-05T14:21:24.125Z,99.90
2018-01-05T14:23:54.075Z,99.90
2018-01-05T14:26:22.380Z,99.90
2018-01-05T14:28:50.697Z,99.90
2018-01-05T14:31:19.002Z,99.90
2018-01-05T14:33:47.352Z,99.90
2018-01-05T14:36:15.653Z,99.90
2018-01-05T14:38:43.972Z,99.90
2018-01-05T14:41:12.346Z,99.90
2018-01-05T14:43:40.632Z,99.90
2018-01-05T14:46:09.040Z,99.90
2018-01-05T14:48:38.236Z,99.90
2018-01-05T14:51:06.658Z,99.90
2018-01-05T14:53:35.878Z,99.90
2018-01-05T14:56:04.405Z,99.90
2018-01-05T14:58:32.749Z,99.90
2018-01-05T15:01:01.082Z,99.90
2018-01-05T15:03:29.392Z,99.90
2018-01-05T15:05:57.732Z,99.90
2018-01-05T15:08:26.830Z,99.90
2018-01-05T15:10:56.109Z,99.90
2018-01-05T15:13:24.582Z,99.90
2018-01-05T15:15:52.982Z,99.90
2018-01-05T15:18:22.121Z,99.90
2018-01-05T15:20:50.428Z,99.90
2018-01-05T15:23:18.739Z,99.90
2018-01-05T15:25:47.022Z,99.90
2018-01-05T15:28:15.343Z,99.90
2018-01-05T15:30:43.638Z,99.90
2018-01-05T15:33:11.929Z,99.90
2018-01-05T15:35:40.248Z,99.90
2018-01-05T15:38:08.534Z,99.90
2018-01-05T15:40:36.869Z,99.90
2018-01-05T15:43:05.165Z,99.90
2018-01-05T15:45:33.483Z,99.90
2018-01-05T15:48:01.891Z,99.90
2018-01-05T15:50:30.200Z,99.90
2018-01-05T15:52:58.528Z,99.90
2018-01-05T15:55:27.925Z,99.90
2018-01-05T15:57:56.277Z,99.90
2018-01-05T16:00:25.218Z,99.90
2018-01-05T16:02:54.313Z,99.90
2018-01-05T16:05:24.325Z,99.90
2018-01-05T16:07:54.256Z,99.90
2018-01-05T16:10:23.444Z,99.90
2018-01-05T16:12:51.739Z,99.90
2018-01-05T16:15:20.238Z,99.90
2018-01-05T16:17:49.312Z,99.90
2018-01-05T16:20:18.412Z,99.90
2018-01-05T16:22:47.497Z,99.90
2018-01-05T16:25:15.829Z,99.90
2018-01-05T16:27:44.123Z,99.90
2018-01-05T16:30:12.552Z,99.90
2018-01-05T16:32:40.850Z,99.90
2018-01-05T16:35:09.175Z,99.90
2018-01-05T16:37:37.505Z,99.90
2018-01-05T16:40:05.834Z,99.90
2018-01-05T16:42:34.145Z,99.90
2018-01-05T16:45:02.539Z,99.90
2018-01-05T16:47:30.809Z,99.90
2018-01-05T16:49:59.143Z,99.90
2018-01-05T16:52:27.429Z,99.90
2018-01-05T16:54:55.805Z,99.90
2018-01-05T16:57:24.101Z,99.90
2018-01-05T16:59:52.424Z,99.90
2018-01-05T17:02:21.565Z,99.90
2018-01-05T17:04:50.657Z,99.90
2018-01-05T17:07:18.966Z,99.90
2018-01-05T17:09:47.297Z,99.90
2018-01-05T17:12:15.609Z,99.90
2018-01-05T17:14:43.907Z,99.90
2018-01-05T17:17:12.285Z,99.90
2018-01-05T17:19:40.624Z,99.90
2018-01-05T17:22:08.939Z,99.90
2018-01-05T17:24:37.247Z,99.90
2018-01-05T17:27:05.568Z,99.90
2018-01-05T17:29:33.937Z,99.90
2018-01-05T17:32:02.264Z,99.90
2018-01-05T17:34:30.555Z,99.90
2018-01-05T17:36:58.868Z,99.90
2018-01-05T17:39:27.468Z,99.90
2018-01-05T17:41:55.767Z,99.90
2018-01-05T17:44:24.144Z,99.90
2018-01-05T17:46:52.481Z,99.90
2018-01-05T17:49:20.788Z,99.90
2018-01-05T17:51:49.085Z,99.90
2018-01-05T17:54:17.420Z,99.90
2018-01-05T17:56:46.568Z,99.90
2018-01-05T17:59:14.831Z,99.90
2018-01-05T18:01:43.931Z,99.90
2018-01-05T18:04:12.282Z,99.90
2018-01-05T18:06:40.571Z,99.90
2018-01-05T18:09:08.887Z,99.90
2018-01-05T18:11:37.192Z,99.90
2018-01-05T18:14:05.512Z,99.90
2018-01-05T18:16:33.845Z,99.90
2018-01-05T18:19:02.161Z,99.90
2018-01-05T18:21:30.612Z,99.90
2018-01-05T18:23:58.908Z,99.90
2018-01-05T18:26:27.232Z,99.90
2018-01-05T18:28:55.548Z,99.90
2018-01-05T18:31:25.558Z,99.90
2018-01-05T18:33:54.636Z,99.90
2018-01-05T18:36:22.940Z,99.90
2018-01-05T18:38:51.240Z,99.90
2018-01-05T18:41:19.562Z,99.90
2018-01-05T18:43:47.886Z,99.90
2018-01-05T18:46:16.196Z,99.90
2018-01-05T18:48:45.278Z,99.90
2018-01-05T18:51:13.586Z,99.90
2018-01-05T18:53:41.880Z,99.90
2018-01-05T18:56:10.264Z,99.90
2018-01-05T18:58:39.328Z,99.90
2018-01-05T19:01:08.414Z,99.90
2018-01-05T19:03:37.495Z,99.90
2018-01-05T19:06:05.800Z,99.90
2018-01-05T19:08:34.094Z,99.90
2018-01-05T19:11:03.180Z,99.90
2018-01-05T19:13:31.484Z,99.90
2018-01-05T19:15:59.821Z,99.90
2018-01-05T19:18:28.878Z,99.90
2018-01-05T19:20:57.173Z,99.90
2018-01-05T19:23:25.488Z,99.90
2018-01-05T19:25:54.364Z,99.90
2018-01-05T19:28:24.290Z,99.90
2018-01-05T19:30:53.718Z,99.90
2018-01-05T19:33:22.010Z,99.90
2018-01-05T19:35:50.342Z,99.90
2018-01-05T19:38:18.665Z,99.90
2018-01-05T19:40:46.948Z,99.90
2018-01-05T19:43:15.276Z,99.90
2018-01-05T19:45:43.626Z,99.90
2018-01-05T19:48:11.953Z,99.90
2018-01-05T19:50:41.105Z,99.90
2018-01-05T19:53:09.448Z,99.90
2018-01-05T19:55:37.837Z,99.90
2018-01-05T19:58:06.289Z,99.90
2018-01-05T20:00:35.351Z,99.90
2018-01-05T20:03:04.454Z,99.90
2018-01-05T20:05:32.810Z,99.90
2018-01-05T20:08:01.923Z,99.90
2018-01-05T20:10:30.440Z,99.90
2018-01-05T20:12:58.779Z,99.90
2018-01-05T20:15:27.097Z,99.90
2018-01-05T20:17:55.417Z,99.90
2018-01-05T20:20:23.739Z,99.90
2018-01-05T20:22:52.026Z,99.90
2018-01-05T20:25:20.525Z,99.90
2018-01-05T20:27:48.851Z,99.90
2018-01-05T20:30:18.494Z,99.90
2018-01-05T20:32:46.826Z,99.90
2018-01-05T20:35:15.151Z,99.90
2018-01-05T20:37:44.240Z,99.90
2018-01-05T20:40:13.407Z,99.90
2018-01-05T20:42:42.556Z,99.90
2018-01-05T20:45:11.009Z,99.90
2018-01-05T20:47:39.344Z,99.90
2018-01-05T20:50:08.429Z,99.90
2018-01-05T20:52:36.740Z,99.90
2018-01-05T20:55:05.163Z,99.90
2018-01-05T20:57:33.650Z,99.90
2018-01-05T21:00:02.797Z,99.90
2018-01-05T21:02:31.161Z,99.90
2018-01-05T21:04:59.541Z,99.90
2018-01-05T21:07:27.871Z,99.90
2018-01-05T21:09:56.175Z,99.90
2018-01-05T21:12:25.273Z,99.90
2018-01-05T21:14:53.650Z,99.90
2018-01-05T21:17:22.025Z,99.90
2018-01-05T21:19:50.395Z,99.90
2018-01-05T21:22:19.537Z,99.90
2018-01-05T21:24:47.984Z,99.90
2018-01-05T21:27:16.277Z,99.90
2018-01-05T21:29:45.362Z,99.90
2018-01-05T21:32:14.428Z,99.90
2018-01-05T21:34:42.737Z,99.90
2018-01-05T21:37:11.058Z,99.90
2018-01-05T21:39:39.399Z,99.90
2018-01-05T21:42:07.702Z,99.90
2018-01-05T21:44:35.991Z,99.90
2018-01-05T21:47:04.361Z,99.90
2018-01-05T21:49:32.677Z,99.90
2018-01-05T21:52:01.021Z,99.90
2018-01-05T21:54:29.370Z,99.90
2018-01-05T21:56:57.664Z,99.90
2018-01-05T21:59:26.762Z,99.90
2018-01-05T22:01:55.060Z,99.90
2018-01-05T22:04:23.379Z,99.90
2018-01-05T22:06:51.693Z,99.90
2018-01-05T22:09:20.736Z,99.90
2018-01-05T22:11:49.810Z,99.90
2018-01-05T22:14:18.885Z,99.90
2018-01-05T22:16:47.189Z,99.90
2018-01-05T22:19:15.632Z,99.90
2018-01-05T22:21:44.730Z,99.90
2018-01-05T22:24:13.076Z,99.90
2018-01-05T22:26:41.388Z,99.90
2018-01-05T22:29:10.448Z,99.90
2018-01-05T22:31:38.792Z,99.90
2018-01-05T22:34:07.893Z,99.90
2018-01-05T22:36:36.248Z,99.90
2018-01-05T22:39:05.358Z,99.90
2018-01-05T22:41:33.725Z,99.90
2018-01-05T22:44:02.040Z,99.90
2018-01-05T22:46:30.332Z,99.90
2018-01-05T22:48:59.408Z,99.90
2018-01-05T22:51:28.496Z,99.90
2018-01-05T22:53:56.955Z,99.90
2018-01-05T22:56:25.260Z,99.90
2018-01-05T22:58:54.376Z,99.90
2018-01-05T23:01:22.673Z,99.90
2018-01-05T23:03:50.973Z,99.90
2018-01-05T23:06:19.329Z,99.90
2018-01-05T23:08:47.627Z,99.90
2018-01-05T23:11:16.677Z,99.90
2018-01-05T23:13:44.992Z,99.90
2018-01-05T23:16:13.667Z,99.90
2018-01-05T23:18:43.009Z,99.90
2018-01-05T23:21:12.109Z,99.90
2018-01-05T23:23:40.432Z,99.90
2018-01-05T23:26:09.523Z,99.90
2018-01-05T23:28:37.856Z,99.90
2018-01-05T23:31:06.918Z,99.90
2018-01-05T23:33:35.258Z,99.90
2018-01-05T23:36:03.557Z,99.90
2018-01-05T23:38:31.891Z,99.90
2018-01-05T23:41:01.023Z,99.90
2018-01-05T23:43:30.298Z,99.90
2018-01-05T23:45:58.635Z,99.90
2018-01-05T23:48:26.944Z,99.90
2018-01-05T23:50:55.256Z,99.90
2018-01-05T23:53:23.568Z,99.90
2018-01-05T23:55:51.948Z,99.90
2018-01-05T23:58:21.049Z,99.90
